Time;durP1;ratioP1;P1;durP2;ratioP2;P2;SDS_P1;SDS_P2;PMS_P1;PMS_P2;Temp;Humidity;BMP_temperature;BMP_pressure;BME280_temperature;BME280_humidity;BME280_pressure;Samples;Min_cycle;Max_cycle;Signal;HPM_P1;HPM_P2
2022/09/01 00:02:09;;;;;;;6.65;2.97;;;;;;;16.59;70.79;102114.13;5038967;28;19921;-44
2022/09/01 00:04:37;;;;;;;6.97;2.70;;;;;;;16.58;70.80;102115.13;5037032;28;20061;-42
2022/09/01 00:07:07;;;;;;;5.65;2.47;;;;;;;16.57;71.04;102105.31;5036771;28;20029;-43
2022/09/01 00:09:33;;;;;;;8.93;3.20;;;;;;;16.53;70.84;102112.97;5072304;28;20041;-44
2022/09/01 00:11:58;;;;;;;8.40;2.40;;;;;;;16.49;71.03;102116.28;5061348;28;20057;-45
2022/09/01 00:14:28;;;;;;;10.30;3.40;;;;;;;16.49;71.03;102119.00;5057035;28;20143;-43
2022/09/01 00:16:53;;;;;;;8.55;2.83;;;;;;;16.48;71.20;102111.88;5055476;28;20022;-43
2022/09/01 00:19:19;;;;;;;4.22;2.67;;;;;;;16.42;71.34;102106.16;5060789;28;20059;-43
2022/09/01 00:21:45;;;;;;;4.70;2.95;;;;;;;16.43;71.51;102107.88;5064587;28;20085;-44
2022/09/01 00:24:13;;;;;;;12.40;2.80;;;;;;;16.42;71.64;102111.59;5071272;28;20028;-43
2022/09/01 00:26:38;;;;;;;;;;;;;;;16.39;71.66;102109.25;5074744;28;20025;-44
2022/09/01 00:29:04;;;;;;;9.27;3.00;;;;;;;16.38;71.78;102101.31;5056604;28;19909;-44
2022/09/01 00:31:30;;;;;;;8.50;3.08;;;;;;;16.39;71.78;102103.00;5056864;28;20037;-42
2022/09/01 00:33:56;;;;;;;10.38;2.88;;;;;;;16.36;71.78;102101.50;5056734;28;20018;-41
2022/09/01 00:36:21;;;;;;;13.45;3.30;;;;;;;16.33;71.94;102099.16;5041887;28;20037;-44
2022/09/01 00:38:48;;;;;;;16.85;3.08;;;;;;;16.31;72.04;102108.53;5055993;28;20033;-43
2022/09/01 00:41:15;;;;;;;14.38;2.70;;;;;;;16.34;72.03;102100.00;5056108;28;20036;-43
2022/09/01 00:43:43;;;;;;;7.93;2.73;;;;;;;16.33;72.20;102098.34;5056303;28;20023;-42
2022/09/01 00:46:18;;;;;;;7.65;2.80;;;;;;;16.31;72.31;102098.50;5055949;28;20406;-45
2022/09/01 00:48:43;;;;;;;6.88;2.72;;;;;;;16.28;72.49;102095.34;5054856;28;20041;-43
2022/09/01 00:51:10;;;;;;;8.90;3.50;;;;;;;16.26;72.64;102086.53;5056166;28;20098;-45
2022/09/01 00:53:37;;;;;;;4.82;2.75;;;;;;;16.26;72.56;102084.66;5055229;28;20035;-44
2022/09/01 00:56:04;;;;;;;6.80;3.27;;;;;;;16.23;72.74;102082.31;5076033;28;20100;-42
2022/09/01 00:58:30;;;;;;;8.98;3.20;;;;;;;16.23;72.65;102087.75;5075884;28;20286;-42
2022/09/01 01:00:55;;;;;;;9.30;2.47;;;;;;;16.21;72.96;102089.81;5077195;28;20043;-43
2022/09/01 01:03:22;;;;;;;8.77;3.10;;;;;;;16.23;72.88;102087.75;5095186;28;20060;-42
2022/09/01 01:05:54;;;;;;;12.82;3.55;;;;;;;16.19;73.03;102081.88;5096297;28;20024;-44
2022/09/01 01:08:27;;;;;;;10.73;3.05;;;;;;;16.19;73.25;102081.88;5064406;28;20124;-44
2022/09/01 01:10:53;;;;;;;7.30;2.70;;;;;;;16.17;73.10;102083.09;5091814;28;20021;-43
2022/09/01 01:13:19;;;;;;;10.20;2.95;;;;;;;16.15;73.20;102082.41;5078679;28;20032;-43
2022/09/01 01:15:45;;;;;;;6.00;3.00;;;;;;;16.12;73.23;102082.81;5076060;28;20048;-43
2022/09/01 01:18:14;;;;;;;14.27;3.40;;;;;;;16.08;73.38;102085.03;5076033;28;20051;-43
2022/09/01 01:23:35;;;;;;;9.93;3.05;;;;;;;16.01;73.49;102078.69;5055519;28;20068;-44
2022/09/01 01:26:05;;;;;;;7.10;3.00;;;;;;;16.00;73.77;102075.09;5063853;28;20017;-42
2022/09/01 01:28:43;;;;;;;10.75;2.75;;;;;;;15.99;73.71;102070.72;5080359;28;20021;-44
2022/09/01 01:31:11;;;;;;;6.00;2.72;;;;;;;15.96;73.83;102076.53;5075840;28;20092;-42
2022/09/01 01:33:43;;;;;;;12.98;3.25;;;;;;;15.97;73.72;102078.19;5075973;28;20028;-42
2022/09/01 01:36:12;;;;;;;5.30;2.55;;;;;;;15.96;73.69;102076.53;5075921;28;20017;-42
2022/09/01 01:38:42;;;;;;;10.00;3.63;;;;;;;15.96;73.72;102076.53;5075230;28;20025;-43
2022/09/01 01:41:08;;;;;;;7.20;2.72;;;;;;;15.96;73.85;102081.97;5076097;28;20033;-45
2022/09/01 01:43:34;;;;;;;6.15;2.60;;;;;;;15.91;74.04;102076.25;5075750;28;20070;-42
2022/09/01 01:46:01;;;;;;;13.73;3.08;;;;;;;15.89;74.10;102075.59;5067950;28;20070;-45
2022/09/01 01:48:27;;;;;;;9.82;2.65;;;;;;;15.89;74.24;102077.47;5060565;28;20036;-44
2022/09/01 01:50:53;;;;;;;14.18;3.00;;;;;;;15.85;74.37;102074.28;5074616;28;20085;-44
2022/09/01 01:53:20;;;;;;;15.77;3.00;;;;;;;15.85;74.50;102077.00;5075525;28;20044;-43
2022/09/01 01:55:49;;;;;;;8.15;2.92;;;;;;;15.84;74.44;102080.72;5087021;28;20032;-42
2022/09/01 01:58:20;;;;;;;10.85;3.50;;;;;;;15.80;74.57;102077.56;5083975;28;20032;-45
2022/09/01 02:00:47;;;;;;;9.18;2.97;;;;;;;15.82;74.73;102074.63;5090092;28;20039;-45
2022/09/01 02:03:19;;;;;;;10.35;3.10;;;;;;;15.78;74.91;102076.91;5075377;28;20033;-44
2022/09/01 02:05:49;;;;;;;7.88;2.85;;;;;;;15.78;74.76;102074.19;5075249;28;20017;-43
2022/09/01 02:08:17;;;;;;;5.95;2.90;;;;;;;15.79;74.89;102075.84;5079731;23;20049;-74
2022/09/01 02:10:44;;;;;;;10.52;3.15;;;;;;;15.79;74.86;102073.13;5018013;28;20030;-75
2022/09/01 02:13:15;;;;;;;7.45;2.70;;;;;;;15.74;75.01;102074.72;5010691;28;20026;-75
2022/09/01 02:15:46;;;;;;;5.78;2.50;;;;;;;15.72;75.05;102068.66;5012954;28;20121;-74
2022/09/01 02:18:36;;;;;;;9.25;2.75;;;;;;;15.70;75.09;102068.84;4996911;28;20145;-74
2022/09/01 02:21:09;;;;;;;7.68;2.80;;;;;;;15.69;75.08;102066.28;5007746;28;20079;-75
2022/09/01 02:23:39;;;;;;;14.57;3.08;;;;;;;15.72;75.34;102071.38;5032910;28;20113;-75
2022/09/01 02:26:07;;;;;;;13.50;3.35;;;;;;;15.69;75.13;102064.44;5017170;28;20041;-75
2022/09/01 02:28:35;;;;;;;5.45;3.05;;;;;;;15.64;75.12;102068.69;5018333;28;20109;-75
2022/09/01 02:31:02;;;;;;;11.18;3.25;;;;;;;15.60;75.42;102060.09;5035864;28;20037;-75
2022/09/01 02:33:29;;;;;;;10.95;3.13;;;;;;;15.58;75.50;102057.56;5017768;28;20112;-74
2022/09/01 02:35:57;;;;;;;11.23;2.95;;;;;;;15.53;75.47;102062.72;5035108;28;20034;-75
2022/09/01 02:38:28;;;;;;;11.77;3.10;;;;;;;15.53;75.61;102065.44;5001435;28;20033;-75
2022/09/01 02:40:54;;;;;;;8.82;3.10;;;;;;;15.53;75.48;102060.00;5020970;28;20045;-74
2022/09/01 02:43:20;;;;;;;6.82;2.75;;;;;;;15.53;75.58;102064.56;5037555;28;20029;-75
2022/09/01 02:45:51;;;;;;;10.35;3.40;;;;;;;15.52;75.48;102058.31;5031090;28;20037;-76
2022/09/01 02:48:17;;;;;;;9.75;3.00;;;;;;;15.50;75.75;102054.91;5011863;28;20025;-75
2022/09/01 02:50:42;;;;;;;8.60;3.17;;;;;;;15.53;75.56;102054.56;5008175;28;20032;-75
2022/09/01 02:53:09;;;;;;;10.80;3.40;;;;;;;15.53;75.28;102054.56;5001055;28;20042;-75
2022/09/01 02:55:43;;;;;;;13.45;3.67;;;;;;;15.46;75.43;102053.63;5035112;28;20369;-74
2022/09/01 02:58:15;;;;;;;13.48;3.00;;;;;;;15.48;75.59;102042.56;5035170;28;20026;-74
2022/09/01 03:00:41;;;;;;;9.93;3.28;;;;;;;15.47;75.51;102046.31;5016193;28;20021;-74
2022/09/01 03:03:06;;;;;;;9.32;3.00;;;;;;;15.42;75.50;102049.59;5014083;28;20044;-75
2022/09/01 03:05:33;;;;;;;9.45;3.33;;;;;;;15.38;75.68;102045.56;5021931;28;20034;-75
2022/09/01 03:08:03;;;;;;;7.18;3.20;;;;;;;15.39;75.38;102046.41;5009843;28;20050;-76
2022/09/01 03:10:32;;;;;;;9.80;3.00;;;;;;;15.38;75.71;102045.56;5034305;28;20022;-75
2022/09/01 03:13:08;;;;;;;5.55;2.67;;;;;;;15.36;75.52;102045.75;5034685;28;20025;-75
2022/09/01 03:15:35;;;;;;;7.78;2.92;;;;;;;15.38;75.46;102045.56;5033789;28;20037;-75
2022/09/01 03:18:01;;;;;;;6.80;2.93;;;;;;;15.41;75.62;102039.78;5017253;28;20029;-75
2022/09/01 03:20:30;;;;;;;12.13;3.38;;;;;;;15.40;75.37;102038.06;5034785;28;20065;-76
2022/09/01 03:22:56;;;;;;;15.32;3.10;;;;;;;15.34;75.63;102033.38;5034969;28;20029;-75
2022/09/01 03:25:23;;;;;;;8.18;3.20;;;;;;;15.27;75.92;102035.13;5036291;28;20064;-76
2022/09/01 03:27:50;;;;;;;10.17;3.23;;;;;;;15.28;76.03;102031.41;5017363;28;20108;-77
2022/09/01 03:30:16;;;;;;;22.55;3.55;;;;;;;15.31;75.77;102033.75;5034874;28;20021;-76
2022/09/01 03:32:41;;;;;;;7.43;3.38;;;;;;;15.28;75.84;102034.13;5033919;28;20116;-75
2022/09/01 03:35:08;;;;;;;10.52;3.08;;;;;;;15.29;75.47;102024.97;5037738;28;20517;-76
2022/09/01 03:37:35;;;;;;;12.07;3.30;;;;;;;15.25;75.60;102034.50;5039358;28;20037;-76
2022/09/01 03:40:03;;;;;;;8.75;3.25;;;;;;;15.24;75.35;102028.22;5015249;28;20083;-77
2022/09/01 03:42:29;;;;;;;14.27;4.05;;;;;;;15.28;75.19;102026.00;5016505;28;20049;-76
2022/09/01 03:44:56;;;;;;;12.23;3.88;;;;;;;15.26;74.65;102022.63;5036911;28;20048;-76
2022/09/01 03:47:23;;;;;;;13.07;2.85;;;;;;;15.25;74.65;102032.63;5041654;28;20072;-75
2022/09/01 03:49:48;;;;;;;6.65;3.17;;;;;;;15.23;74.83;102025.72;5018081;28;20109;-76
2022/09/01 03:52:16;;;;;;;7.22;3.25;;;;;;;15.24;74.38;102027.38;5032654;28;20057;-76
2022/09/01 03:54:42;;;;;;;12.63;3.58;;;;;;;15.28;73.98;102026.00;5033833;28;20037;-76
2022/09/01 03:57:09;;;;;;;11.35;3.30;;;;;;;15.27;73.70;102022.44;5033919;28;20117;-75
2022/09/01 03:59:36;;;;;;;9.77;3.53;;;;;;;15.27;73.51;102021.59;5032662;28;20026;-77
2022/09/01 04:02:02;;;;;;;11.73;3.38;;;;;;;15.25;73.73;102024.50;5034085;28;20119;-75
2022/09/01 04:04:31;;;;;;;13.15;3.10;;;;;;;15.26;73.57;102022.63;5034530;28;20112;-77
2022/09/01 04:06:59;;;;;;;11.30;4.00;;;;;;;15.29;73.21;102020.38;5030570;28;20049;-76
2022/09/01 04:09:25;;;;;;;7.80;3.03;;;;;;;15.28;73.12;102021.41;4990446;28;20029;-76
2022/09/01 04:11:51;;;;;;;14.57;3.90;;;;;;;15.24;73.31;102020.06;5018553;28;20104;-76
2022/09/01 04:14:17;;;;;;;9.55;4.13;;;;;;;15.23;73.38;102006.72;5019034;28;20069;-76
2022/09/01 04:19:29;;;;;;;7.93;3.85;;;;;;;15.17;73.36;102019.16;5013852;28;20765;-77
2022/09/01 04:21:58;;;;;;;12.95;4.28;;;;;;;15.10;73.63;102013.59;5000258;28;20030;-76
2022/09/01 04:24:26;;;;;;;10.57;4.07;;;;;;;15.10;73.77;102010.88;5019281;28;20057;-76
2022/09/01 04:26:53;;;;;;;14.45;4.40;;;;;;;15.10;73.65;102016.31;5021230;28;20108;-77
2022/09/01 04:29:26;;;;;;;10.38;3.72;;;;;;;15.09;73.65;102014.66;5023694;28;20033;-77
2022/09/01 04:31:55;;;;;;;10.68;3.80;;;;;;;15.07;73.44;102024.81;5015354;28;20022;-76
2022/09/01 04:34:21;;;;;;;10.77;4.03;;;;;;;15.04;73.45;102022.47;5021240;28;20081;-76
2022/09/01 04:36:47;;;;;;;12.65;3.92;;;;;;;15.03;73.38;102025.34;5001366;28;20029;-77
2022/09/01 04:39:12;;;;;;;6.60;3.92;;;;;;;14.99;73.73;102027.59;5021507;28;20417;-76
2022/09/01 04:41:41;;;;;;;15.52;5.32;;;;;;;14.95;73.35;102023.56;5016878;28;20010;-77
2022/09/01 04:44:07;;;;;;;17.27;4.38;;;;;;;14.88;73.67;102023.47;5023538;28;20085;-76
2022/09/01 04:46:36;;;;;;;16.48;4.28;;;;;;;14.88;73.74;102019.91;5004095;28;20037;-77
2022/09/01 04:49:08;;;;;;;11.07;4.05;;;;;;;14.85;73.77;102018.41;5018399;28;20021;-76
2022/09/01 04:51:37;;;;;;;13.02;4.38;;;;;;;14.81;73.60;102027.06;5016838;28;20048;-77
2022/09/01 04:54:06;;;;;;;12.48;4.07;;;;;;;14.81;73.88;102027.06;5022315;28;20120;-76
2022/09/01 04:56:35;;;;;;;14.05;5.03;;;;;;;14.78;73.72;102027.44;5007326;28;20026;-77
2022/09/01 04:59:05;;;;;;;15.18;4.63;;;;;;;14.76;73.87;102024.06;5004236;28;20029;-77
2022/09/01 05:01:42;;;;;;;15.27;4.10;;;;;;;14.73;73.61;102025.25;5025525;28;20037;-76
2022/09/01 05:04:13;;;;;;;11.82;5.10;;;;;;;14.68;73.83;102020.38;5024626;28;20465;-76
2022/09/01 05:06:43;;;;;;;8.40;4.30;;;;;;;14.65;74.06;102028.88;5026692;28;20030;-78
2022/09/01 05:09:10;;;;;;;16.95;4.50;;;;;;;14.61;73.94;102024.84;5041850;28;20074;-77
2022/09/01 05:11:38;;;;;;;12.63;5.00;;;;;;;14.64;73.90;102023.63;5063965;28;20581;-76
2022/09/01 05:14:05;;;;;;;;;;;;;;;14.60;74.13;102025.00;5048877;28;20045;-76
2022/09/01 05:16:32;;;;;;;14.90;4.70;;;;;;;14.58;73.89;102017.06;5042042;28;19919;-76
2022/09/01 05:19:00;;;;;;;11.93;5.13;;;;;;;14.53;74.12;102029.47;5044371;28;20032;-77
2022/09/01 05:21:28;;;;;;;11.35;4.78;;;;;;;14.53;74.37;102024.03;5046180;28;20017;-76
2022/09/01 05:23:55;;;;;;;8.52;4.57;;;;;;;14.53;74.25;102022.16;5045727;28;20037;-76
2022/09/01 05:26:25;;;;;;;10.18;5.05;;;;;;;14.58;74.27;102024.34;5045434;28;20029;-77
2022/09/01 05:28:53;;;;;;;12.77;4.03;;;;;;;14.65;74.06;102012.63;5042366;28;20036;-76
2022/09/01 05:31:19;;;;;;;13.45;5.43;;;;;;;14.87;73.29;102020.91;5037081;28;20025;-77
2022/09/01 05:33:47;;;;;;;11.85;4.53;;;;;;;15.20;72.13;102021.50;5024931;28;20029;-77
2022/09/01 05:36:14;;;;;;;13.88;4.75;;;;;;;15.48;70.55;102026.28;5012536;28;20281;-76
2022/09/01 05:38:42;;;;;;;15.48;4.40;;;;;;;15.91;69.03;102024.66;5032626;28;20026;-78
2022/09/01 05:41:10;;;;;;;15.52;4.95;;;;;;;16.51;66.64;102032.69;5029268;28;20030;-78
2022/09/01 05:43:35;;;;;;;11.82;4.40;;;;;;;16.84;64.67;102025.75;5033269;28;20029;-77
2022/09/01 05:46:05;;;;;;;9.38;4.38;;;;;;;17.28;63.35;102026.56;5034018;28;20575;-77
2022/09/01 05:48:36;;;;;;;10.07;4.15;;;;;;;17.70;61.87;102031.03;5015200;28;20183;-77
2022/09/01 05:51:07;;;;;;;16.30;4.75;;;;;;;18.03;60.19;102033.09;5015539;28;20037;-77
2022/09/01 05:53:33;;;;;;;9.63;3.95;;;;;;;18.12;59.33;102031.06;5031783;28;20025;-77
2022/09/01 05:55:59;;;;;;;13.45;4.53;;;;;;;18.42;58.69;102031.59;5031143;28;20436;-77
2022/09/01 05:58:25;;;;;;;11.43;4.28;;;;;;;18.60;57.89;102031.84;5032526;28;20029;-77
2022/09/01 06:00:54;;;;;;;9.20;4.05;;;;;;;18.57;57.25;102035.00;5034750;28;20044;-76
2022/09/01 06:03:21;;;;;;;10.15;4.43;;;;;;;17.77;59.40;102031.91;5036681;28;20409;-77
2022/09/01 06:05:51;;;;;;;11.48;4.72;;;;;;;17.27;61.28;102031.16;5031811;28;20029;-77
2022/09/01 06:08:18;;;;;;;13.70;5.22;;;;;;;16.81;62.98;102030.75;5027415;28;20052;-76
2022/09/01 06:10:44;;;;;;;13.95;4.50;;;;;;;16.60;64.17;102026.09;5037645;28;20045;-77
2022/09/01 06:13:10;;;;;;;12.50;4.60;;;;;;;17.08;63.33;102034.53;5034092;28;20033;-78
2022/09/01 06:15:39;;;;;;;13.52;4.80;;;;;;;17.58;61.17;102035.34;5032215;28;20022;-78
2022/09/01 06:18:06;;;;;;;12.05;5.00;;;;;;;17.80;59.96;102035.28;4984693;28;20051;-78
2022/09/01 06:20:32;;;;;;;9.38;4.25;;;;;;;17.65;60.43;102038.13;5016301;28;20033;-76
2022/09/01 06:22:57;;;;;;;14.15;4.65;;;;;;;17.49;60.55;102034.66;5035857;28;20032;-76
2022/09/01 06:25:25;;;;;;;15.45;4.75;;;;;;;17.51;60.68;102039.91;5036253;28;20109;-78
2022/09/01 06:27:51;;;;;;;10.38;4.85;;;;;;;17.34;61.10;102036.63;5017857;28;20026;-78
2022/09/01 06:30:19;;;;;;;15.00;5.40;;;;;;;17.04;62.13;102035.97;5017880;28;20068;-77
2022/09/01 06:32:45;;;;;;;15.02;4.78;;;;;;;16.88;63.32;102031.66;5035756;28;20109;-79
2022/09/01 06:35:12;;;;;;;8.38;4.47;;;;;;;16.78;63.53;102033.84;5021968;28;20086;-77
2022/09/01 06:37:38;;;;;;;10.00;5.18;;;;;;;16.57;63.66;102035.47;5021914;28;20045;-77
2022/09/01 06:40:04;;;;;;;11.75;4.53;;;;;;;16.46;64.51;102036.84;5038097;28;20038;-77
2022/09/01 06:42:34;;;;;;;11.02;5.10;;;;;;;16.50;64.76;102033.72;5034835;28;20053;-77
2022/09/01 06:45:00;;;;;;;10.68;4.82;;;;;;;16.79;63.89;102039.06;5034786;28;20064;-77
2022/09/01 06:47:27;;;;;;;13.63;4.85;;;;;;;17.68;61.75;102043.16;5019306;28;20111;-78
2022/09/01 06:49:54;;;;;;;11.75;5.03;;;;;;;18.89;56.82;102040.75;5017194;28;20029;-76
2022/09/01 06:52:22;;;;;;;9.70;4.53;;;;;;;19.86;54.43;102041.97;4998945;28;20048;-77
2022/09/01 06:54:49;;;;;;;18.98;4.82;;;;;;;20.27;52.57;102050.84;5036309;28;20460;-77
2022/09/01 06:57:15;;;;;;;12.00;4.55;;;;;;;21.09;50.56;102051.88;5032434;28;20025;-77
2022/09/01 06:59:40;;;;;;;13.00;4.28;;;;;;;21.47;48.40;102059.97;5036900;28;20104;-77
2022/09/01 07:02:07;;;;;;;11.82;3.47;;;;;;;21.67;48.47;102048.84;5033744;28;20465;-78
2022/09/01 07:04:33;;;;;;;9.93;4.70;;;;;;;22.12;47.61;102045.78;5034285;28;20060;-76
2022/09/01 07:06:59;;;;;;;12.07;3.95;;;;;;;22.80;45.86;102046.56;5034074;28;20049;-77
2022/09/01 07:09:25;;;;;;;15.52;4.10;;;;;;;23.52;44.13;102053.88;5033435;28;20037;-77
2022/09/01 07:11:51;;;;;;;10.90;3.38;;;;;;;23.80;43.01;102050.41;5036141;28;20033;-77
2022/09/01 07:14:18;;;;;;;10.40;4.30;;;;;;;23.88;41.92;102053.63;5035737;28;20462;-78
2022/09/01 07:16:45;;;;;;;12.27;3.80;;;;;;;23.99;41.99;102049.19;5036777;28;20034;-77
2022/09/01 07:19:14;;;;;;;20.02;4.45;;;;;;;24.56;41.41;102053.91;5017472;28;20412;-77
2022/09/01 07:21:42;;;;;;;12.52;3.70;;;;;;;24.87;39.91;102054.50;5037097;28;20061;-78
2022/09/01 07:24:09;;;;;;;9.00;3.75;;;;;;;24.59;40.50;102047.91;5036940;28;20029;-76
2022/09/01 07:26:35;;;;;;;10.65;3.55;;;;;;;24.26;40.36;102060.47;5040113;28;20033;-76
2022/09/01 07:29:02;;;;;;;8.52;3.88;;;;;;;23.88;41.59;102052.78;5022169;28;20061;-77
2022/09/01 07:31:30;;;;;;;;;;;;;;;23.81;42.14;102047.41;5039622;28;20214;-78
2022/09/01 07:33:58;;;;;;;12.32;3.65;;;;;;;24.00;41.92;102041.78;5022462;28;19909;-78
2022/09/01 07:36:24;;;;;;;11.98;3.78;;;;;;;24.46;41.01;102043.56;5039189;28;20025;-77
2022/09/01 07:38:52;;;;;;;12.65;3.95;;;;;;;24.98;40.32;102043.38;5038262;28;20036;-77
2022/09/01 07:41:19;;;;;;;10.80;3.83;;;;;;;25.26;39.48;102046.34;5042706;28;20085;-77
2022/09/01 07:43:44;;;;;;;14.80;3.93;;;;;;;25.27;38.57;102048.84;5040219;28;20032;-77
2022/09/01 07:46:10;;;;;;;9.73;3.50;;;;;;;25.06;39.80;102050.41;5041032;28;20061;-77
2022/09/01 07:48:37;;;;;;;10.20;3.42;;;;;;;25.63;38.67;102050.22;5039524;28;20029;-77
2022/09/01 07:51:02;;;;;;;15.40;3.97;;;;;;;25.77;38.36;102058.13;5043146;28;20097;-77
2022/09/01 07:53:30;;;;;;;12.73;3.80;;;;;;;26.11;37.32;102052.53;5043128;28;20045;-78
2022/09/01 07:55:57;;;;;;;5.70;3.60;;;;;;;26.70;37.14;102058.22;5039699;28;20381;-77
2022/09/01 07:58:31;;;;;;;12.07;4.00;;;;;;;26.68;36.03;102068.69;5027342;28;20026;-81
2022/09/01 08:01:01;;;;;;;13.65;3.35;;;;;;;26.95;35.97;102068.66;5027491;28;20033;-77
2022/09/01 08:03:26;;;;;;;21.95;4.30;;;;;;;27.07;35.24;102062.97;5044277;28;20025;-77
2022/09/01 08:05:59;;;;;;;12.30;4.45;;;;;;;27.29;34.82;102063.72;5019737;28;20021;-76
2022/09/01 08:08:25;;;;;;;7.68;3.83;;;;;;;27.78;34.06;102060.72;5023177;28;20061;-77
2022/09/01 08:10:51;;;;;;;7.93;3.60;;;;;;;27.88;33.66;102064.66;5030236;28;20042;-75
2022/09/01 08:13:16;;;;;;;10.02;3.30;;;;;;;27.86;34.17;102056.66;5025601;28;20040;-75
2022/09/01 08:15:42;;;;;;;12.68;3.90;;;;;;;28.06;33.72;102066.97;5040969;28;20084;-75
2022/09/01 08:18:08;;;;;;;13.43;3.83;;;;;;;28.16;33.67;102060.66;5040609;28;20037;-75
2022/09/01 08:20:38;;;;;;;15.57;3.33;;;;;;;28.22;33.79;102060.38;5043737;28;20033;-76
2022/09/01 08:23:04;;;;;;;7.55;3.75;;;;;;;27.79;33.75;102062.38;5045841;28;20064;-75
2022/09/01 08:25:32;;;;;;;8.50;3.67;;;;;;;27.39;34.75;102062.16;5024632;28;20029;-75
2022/09/01 08:27:57;;;;;;;9.93;3.35;;;;;;;27.59;34.70;102051.19;5049024;28;20025;-74
2022/09/01 08:30:23;;;;;;;10.15;3.45;;;;;;;28.02;33.98;102061.16;5049219;28;20065;-74
2022/09/01 08:32:49;;;;;;;12.15;3.58;;;;;;;28.22;33.97;102057.63;5036870;28;20120;-75
2022/09/01 08:35:15;;;;;;;8.75;3.80;;;;;;;28.64;33.39;102059.41;5055934;28;20081;-74
2022/09/01 08:37:41;;;;;;;11.30;3.57;;;;;;;28.81;32.23;102066.66;5045704;28;20025;-75
2022/09/01 08:40:08;;;;;;;9.43;3.20;;;;;;;28.53;33.68;102059.69;5050100;28;20057;-77
2022/09/01 08:42:59;;;;;;;9.30;3.70;;;;;;;28.92;32.39;102060.03;5026465;28;20404;-74
2022/09/01 08:45:30;;;;;;;17.27;3.60;;;;;;;28.88;32.65;102067.22;5040134;28;20032;-74
2022/09/01 08:48:01;;;;;;;15.18;3.65;;;;;;;28.40;32.67;102052.69;5024712;28;20061;-74
2022/09/01 08:50:26;;;;;;;11.27;3.75;;;;;;;28.59;32.90;102056.63;5043729;28;20410;-75
2022/09/01 08:53:08;;;;;;;8.65;2.85;;;;;;;28.93;33.14;102050.59;5025026;28;20041;-75
2022/09/01 08:55:37;;;;;;;11.73;3.28;;;;;;;29.19;31.99;102064.47;5020396;28;20088;-76
2022/09/01 08:58:04;;;;;;;13.13;3.47;;;;;;;29.36;31.92;102056.72;5043325;28;20032;-76
2022/09/01 09:00:38;;;;;;;8.80;3.22;;;;;;;29.45;31.89;102062.50;5033672;28;20029;-75
2022/09/01 09:03:12;;;;;;;10.90;3.63;;;;;;;29.88;31.11;102052.72;5025681;28;20393;-75
2022/09/01 09:05:57;;;;;;;9.18;3.25;;;;;;;29.62;31.44;102059.41;5039548;28;20341;-75
2022/09/01 09:08:47;;;;;;;12.68;3.58;;;;;;;29.53;31.05;102048.91;5021489;28;20049;-75
2022/09/01 09:11:33;;;;;;;9.00;3.25;;;;;;;29.49;31.10;102050.59;5019715;28;20045;-76
2022/09/01 09:13:58;;;;;;;10.23;3.08;;;;;;;29.58;31.37;102038.91;5031345;28;20028;-76
2022/09/01 09:16:33;;;;;;;9.48;3.33;;;;;;;29.16;31.69;102045.63;5038387;28;20022;-76
2022/09/01 09:19:26;;;;;;;16.20;3.60;;;;;;;29.08;31.86;102039.53;5009318;28;20060;-77
2022/09/01 09:21:53;;;;;;;12.70;3.33;;;;;;;29.19;32.12;102034.81;5010585;28;20045;-75
2022/09/01 09:24:46;;;;;;;;;;;;;;;29.36;31.88;102034.53;5020455;28;20060;-75
2022/09/01 09:27:21;;;;;;;7.93;3.85;;;;;;;29.27;31.30;102042.56;5039829;28;19996;-77
2022/09/01 09:29:52;;;;;;;19.30;4.05;;;;;;;29.25;32.08;102036.50;5040181;28;20029;-76
2022/09/01 09:32:18;;;;;;;8.70;3.58;;;;;;;29.79;31.30;102029.44;5035179;28;20061;-76
2022/09/01 09:34:43;;;;;;;4.88;2.55;;;;;;;30.10;31.14;102037.66;5026899;28;20037;-75
2022/09/01 09:37:24;;;;;;;10.25;2.95;;;;;;;30.15;30.22;102030.13;5040711;28;20116;-75
2022/09/01 09:40:09;;;;;;;8.90;3.25;;;;;;;30.32;29.32;102035.31;5046739;28;20029;-75
2022/09/01 09:42:39;;;;;;;14.93;3.72;;;;;;;30.22;29.25;102035.34;5040240;28;20048;-75
2022/09/01 09:45:12;;;;;;;8.48;2.72;;;;;;;29.98;29.19;102024.91;5020182;28;20424;-76
2022/09/01 09:47:40;;;;;;;17.05;2.70;;;;;;;30.16;29.69;102026.22;5023906;28;20045;-76
2022/09/01 09:50:23;;;;;;;8.98;3.10;;;;;;;30.12;29.82;102025.16;5029712;28;20170;-76
2022/09/01 09:52:50;;;;;;;8.98;3.30;;;;;;;29.45;29.97;102020.91;5046810;28;20033;-75
2022/09/01 09:55:23;;;;;;;;;;;;;;;29.35;30.92;102021.75;5028882;28;20432;-77
2022/09/01 09:57:49;;;;;;;10.82;3.30;;;;;;;28.85;31.52;102017.88;5042051;28;19924;-75
2022/09/01 10:00:22;;;;;;;8.07;2.88;;;;;;;28.89;32.36;102010.69;5029539;28;20025;-75
2022/09/01 10:03:01;;;;;;;12.15;2.67;;;;;;;28.30;32.36;102023.03;5020729;28;20029;-75
2022/09/01 10:05:38;;;;;;;15.98;3.58;;;;;;;27.31;33.47;102016.47;5035981;28;20025;-75
2022/09/01 10:08:07;;;;;;;15.02;3.75;;;;;;;26.79;35.82;102017.13;5032453;28;20179;-75
2022/09/01 10:10:46;;;;;;;12.38;2.78;;;;;;;26.42;35.77;102004.06;5015803;28;20051;-77
2022/09/01 10:13:18;;;;;;;17.00;3.13;;;;;;;25.80;36.45;102002.47;5036254;28;20040;-75
2022/09/01 10:15:53;;;;;;;11.95;3.40;;;;;;;25.45;37.52;102011.91;5021976;28;20022;-76
2022/09/01 10:18:28;;;;;;;19.45;3.40;;;;;;;25.23;37.92;102002.78;5019943;28;20022;-75
2022/09/01 10:21:00;;;;;;;9.45;2.97;;;;;;;25.21;38.16;102005.78;5014892;28;20033;-75
2022/09/01 10:23:28;;;;;;;8.95;3.08;;;;;;;25.23;37.66;102002.78;5026055;28;20061;-75
2022/09/01 10:25:57;;;;;;;7.75;2.97;;;;;;;24.93;38.24;102001.16;5036605;28;20021;-75
2022/09/01 10:28:23;;;;;;;5.38;2.65;;;;;;;24.95;38.68;101990.72;5037221;28;20535;-76
2022/09/01 10:30:50;;;;;;;9.45;2.50;;;;;;;24.92;38.77;102002.25;5018206;28;20030;-76
2022/09/01 10:33:16;;;;;;;;;;;;;;;24.87;38.08;101994.72;5032095;28;20388;-75
2022/09/01 10:35:44;;;;;;;7.68;2.83;;;;;;;24.71;38.81;101993.63;5047037;28;20015;-76
2022/09/01 10:38:14;;;;;;;12.38;3.03;;;;;;;24.82;39.37;101991.06;5042150;28;20089;-76
2022/09/01 10:40:44;;;;;;;7.18;2.72;;;;;;;24.97;38.93;101991.31;5029752;28;20041;-75
2022/09/01 10:43:46;;;;;;;8.10;2.55;;;;;;;25.19;37.82;101988.66;5048518;28;20025;-75
2022/09/01 10:46:20;;;;;;;6.95;2.33;;;;;;;25.09;37.20;101986.56;4977967;28;20042;-75
2022/09/01 10:48:47;;;;;;;7.80;2.20;;;;;;;25.00;38.16;101979.81;5055161;28;20037;-75
2022/09/01 10:51:12;;;;;;;11.18;2.42;;;;;;;25.13;37.27;101984.13;5054214;28;20030;-77
2022/09/01 10:53:44;;;;;;;5.78;2.50;;;;;;;25.35;36.39;101986.97;5047222;28;20033;-75
2022/09/01 10:56:37;;;;;;;6.75;2.53;;;;;;;25.01;36.82;101983.38;5052144;28;20025;-76
2022/09/01 10:59:10;;;;;;;6.57;2.03;;;;;;;24.97;36.78;101977.56;5053489;28;20022;-75
2022/09/01 11:01:42;;;;;;;13.73;2.22;;;;;;;25.08;36.08;101973.03;5006654;28;20025;-74
2022/09/01 11:04:09;;;;;;;9.40;2.30;;;;;;;25.17;37.17;101977.91;5036253;28;20045;-74
2022/09/01 11:06:41;;;;;;;10.10;2.60;;;;;;;25.54;36.06;101977.34;5009192;28;20146;-75
2022/09/01 11:09:31;;;;;;;6.43;2.05;;;;;;;25.79;35.36;101974.06;5041983;28;20036;-75
2022/09/01 11:12:20;;;;;;;7.07;2.03;;;;;;;26.34;34.99;101963.13;5063877;28;20108;-75
2022/09/01 11:14:57;;;;;;;11.65;2.60;;;;;;;27.20;33.30;101968.59;5070760;28;20036;-74
2022/09/01 11:17:32;;;;;;;7.63;1.95;;;;;;;27.47;32.76;101973.16;5051807;28;20072;-74
2022/09/01 11:20:25;;;;;;;7.68;1.80;;;;;;;28.62;31.07;101986.88;5047929;28;20093;-76
2022/09/01 11:23:06;;;;;;;9.48;2.30;;;;;;;29.03;29.30;101972.97;5030412;28;20069;-75
2022/09/01 11:25:38;;;;;;;8.38;2.25;;;;;;;28.21;30.40;101977.63;5021930;28;20053;-74
2022/09/01 11:28:25;;;;;;;8.18;2.25;;;;;;;27.18;32.17;101978.25;5058628;28;20056;-74
2022/09/01 11:30:54;;;;;;;13.50;2.30;;;;;;;27.36;32.09;101964.81;5055254;28;20026;-76
2022/09/01 11:33:57;;;;;;;7.38;1.98;;;;;;;28.41;29.95;101966.59;5048038;28;20120;-75
2022/09/01 11:36:36;;;;;;;14.82;2.22;;;;;;;28.54;30.40;101968.03;5054549;28;20017;-75
2022/09/01 11:39:16;;;;;;;11.43;2.55;;;;;;;28.23;30.47;101964.34;5049856;28;20106;-74